Willow Run Airport
KYIP : now visible

Airfield :











YOU CAN JOIN US ON...

 
LOGIN :

Register | Disclaimer

   EN    FR    IT 

 









Legend :    VFR   Marginal VFR   IFR   Intensive IFR   Very Intensive IFR
Visi :
Ceiling :
>= 8 km
>= 3000ft
5 to 8 km
1000 to 3000 ft
1500m to 5 km
500 to 1000 ft
800 to 1500m
200 to 500 ft
< 800m
< 200 ft
Symbols :   Thunderstorms  Fog  Heavy snow  Heavy precipitations  Wind > 20 kt







- Airport Elevation : 716 ft
- IATA code : YIP


KYIP - Willow Run

CURRENT METAR :
  • 161353Z 34006KT 8SM OVC039 23/19 A3011 RMK AO2 SLP189 T02330189 $

EXPIRED METARs :
  • 161253Z VRB05KT 10SM OVC039 22/18 A3008 RMK AO2 RAE1156 SLP181 P0000 T02220183 $
  • 161153Z 00000KT 9SM -RA 21/18 A3008 RMK AO2 RAB48 SLP179 P0000 60000 70005 T02110183 10211 20178 53007 $

TAF KYIP
Valid from the 16 at 12:00 until the 17 at 12:00 UTC


161120Z 1612/1712 VRB03KT P6SM SCT025 OVC040
FM161600 02005KT P6SM SCT016 OVC025
FM162000 03006KT P6SM BKN035
FM170400 03004KT P6SM BKN025
FM170900 02003KT 6SM BR SCT030
No reported NOTAMs for that airfield.



MET'MAP, your aeronautical weather chart ! - Copyright ORBIFLY December 2007 - Disclaimer

ORBIFLY MET'MAP TEAM :

Programming & Development : Alexandra Zaïnal
Concept & Development : Baudouin d'Aumeries
Co-Development & Prog : Marc-Olivier Méhu
Technical & hardware support : Manuel Goepfert

Contact : metmap@orbifly.com




SOURCES & CREDITS :

   NOAA       Earth
Advisory